createdAt,value
2019-01-30T00:01:39.604Z,9.10
2019-01-30T00:04:05.599Z,6.10
2019-01-30T00:06:31.547Z,5.80
2019-01-30T00:08:57.483Z,6.17
2019-01-30T00:11:23.510Z,4.50
2019-01-30T00:13:49.449Z,5.37
2019-01-30T00:16:16.175Z,4.73
2019-01-30T00:18:42.859Z,5.00
2019-01-30T00:21:08.848Z,7.27
2019-01-30T00:23:35.543Z,7.67
2019-01-30T00:26:01.532Z,7.43
2019-01-30T00:28:27.506Z,5.43
2019-01-30T00:30:53.489Z,4.77
2019-01-30T00:33:19.445Z,6.43
2019-01-30T00:35:45.426Z,8.23
2019-01-30T00:38:11.397Z,5.43
2019-01-30T00:40:37.398Z,5.77
2019-01-30T00:43:03.410Z,7.60
2019-01-30T00:45:29.414Z,6.00
2019-01-30T00:47:55.380Z,6.10
2019-01-30T00:50:21.347Z,7.60
2019-01-30T00:52:47.347Z,8.67
2019-01-30T00:55:14.060Z,5.97
2019-01-30T00:57:40.088Z,5.93
2019-01-30T01:00:14.354Z,3.37
2019-01-30T01:02:33.591Z,5.10
2019-01-30T01:05:00.325Z,4.73
2019-01-30T01:07:26.327Z,4.13
2019-01-30T01:09:52.321Z,7.27
2019-01-30T01:12:18.307Z,3.53
2019-01-30T01:14:44.266Z,5.70
2019-01-30T01:17:10.249Z,3.97
2019-01-30T01:19:36.200Z,3.63
2019-01-30T01:22:02.914Z,6.50
2019-01-30T01:24:28.877Z,4.27
2019-01-30T01:26:54.858Z,4.93
2019-01-30T01:29:21.564Z,5.27
2019-01-30T01:31:47.538Z,4.43
2019-01-30T01:34:13.542Z,4.97
2019-01-30T01:36:40.247Z,11.00
2019-01-30T01:39:06.220Z,4.77
2019-01-30T01:41:32.918Z,4.27
2019-01-30T01:43:58.913Z,5.90
2019-01-30T01:46:24.856Z,6.43
2019-01-30T01:48:50.868Z,8.10
2019-01-30T01:51:16.832Z,4.87
2019-01-30T01:53:42.803Z,4.80
2019-01-30T01:56:08.747Z,5.27
2019-01-30T01:58:34.737Z,6.60
2019-01-30T02:01:00.692Z,6.50
2019-01-30T02:03:26.665Z,6.83
2019-01-30T02:05:52.620Z,5.13
2019-01-30T02:08:18.587Z,4.10
2019-01-30T02:10:45.284Z,4.07
2019-01-30T02:13:11.274Z,7.73
2019-01-30T02:15:37.222Z,5.30
2019-01-30T02:18:03.192Z,4.80
2019-01-30T02:20:29.173Z,4.03
2019-01-30T02:22:55.127Z,14.40
2019-01-30T02:25:21.131Z,6.47
2019-01-30T02:27:47.078Z,6.37
2019-01-30T02:30:13.057Z,7.30
2019-01-30T02:32:39.019Z,5.80
2019-01-30T02:35:04.999Z,8.40
2019-01-30T02:37:30.942Z,8.13
2019-01-30T02:39:56.931Z,5.90
2019-01-30T02:42:22.900Z,7.07
2019-01-30T02:44:48.882Z,5.73
2019-01-30T02:47:14.836Z,7.77
2019-01-30T02:49:40.785Z,9.17
2019-01-30T02:52:06.785Z,7.73
2019-01-30T02:54:32.738Z,6.17
2019-01-30T02:56:58.707Z,6.63
2019-01-30T02:59:25.413Z,8.50
2019-01-30T03:01:52.180Z,7.20
2019-01-30T03:04:18.880Z,6.80
2019-01-30T03:06:45.612Z,7.20
2019-01-30T03:09:11.624Z,4.80
2019-01-30T03:11:37.608Z,7.53
2019-01-30T03:14:03.581Z,8.20
2019-01-30T03:16:30.323Z,8.40
2019-01-30T03:18:56.284Z,10.30
2019-01-30T03:21:22.264Z,10.50
2019-01-30T03:23:48.228Z,7.40
2019-01-30T03:26:14.224Z,8.27
2019-01-30T03:28:40.177Z,8.20
2019-01-30T03:31:16.827Z,7.77
2019-01-30T03:33:32.165Z,7.37
2019-01-30T03:35:58.114Z,8.27
2019-01-30T03:38:24.106Z,11.57
2019-01-30T03:40:50.051Z,10.37
2019-01-30T03:43:16.031Z,8.93
2019-01-30T03:45:41.985Z,5.67
2019-01-30T03:48:07.982Z,9.80
2019-01-30T03:50:33.945Z,8.63
2019-01-30T03:53:00.677Z,9.27
2019-01-30T03:55:26.637Z,8.27
2019-01-30T03:57:52.616Z,5.83
2019-01-30T04:00:18.575Z,10.17
2019-01-30T04:02:45.298Z,8.53
2019-01-30T04:05:12.004Z,9.43
2019-01-30T04:07:38.163Z,8.17
2019-01-30T04:10:04.156Z,8.33
2019-01-30T04:12:30.129Z,7.07
2019-01-30T04:14:56.109Z,8.27
2019-01-30T04:17:22.070Z,9.47
2019-01-30T04:19:48.050Z,9.07
2019-01-30T04:22:14.024Z,6.97
2019-01-30T04:24:40.017Z,7.87
2019-01-30T04:27:05.960Z,10.90
2019-01-30T04:29:32.675Z,9.17
2019-01-30T04:31:59.391Z,9.27
2019-01-30T04:34:25.422Z,14.33
2019-01-30T04:36:51.378Z,8.63
2019-01-30T04:39:18.090Z,13.07
2019-01-30T04:41:44.039Z,11.20
2019-01-30T04:44:10.754Z,7.23
2019-01-30T04:46:36.709Z,8.70
2019-01-30T04:49:02.689Z,6.33
2019-01-30T04:51:28.654Z,10.00
2019-01-30T04:53:54.614Z,9.83
2019-01-30T04:56:20.597Z,8.60
2019-01-30T04:58:47.300Z,7.23
2019-01-30T05:01:13.305Z,5.93
2019-01-30T05:03:39.258Z,8.43
2019-01-30T05:06:05.234Z,9.63
2019-01-30T05:08:31.195Z,7.60
2019-01-30T05:10:57.169Z,7.93
2019-01-30T05:13:23.104Z,4.77
2019-01-30T05:15:49.077Z,7.57
2019-01-30T05:18:15.773Z,9.33
2019-01-30T05:20:41.759Z,6.63
2019-01-30T05:23:07.731Z,6.00
2019-01-30T05:25:33.715Z,6.23
2019-01-30T05:27:59.692Z,8.13
2019-01-30T05:30:25.657Z,6.80
2019-01-30T05:32:51.643Z,7.23
2019-01-30T05:35:18.364Z,6.87
2019-01-30T05:37:44.499Z,8.20
2019-01-30T05:40:10.403Z,9.10
2019-01-30T05:42:36.399Z,8.43
2019-01-30T05:45:02.387Z,7.60
2019-01-30T05:47:28.363Z,6.60
2019-01-30T05:49:54.318Z,6.23
2019-01-30T05:52:20.304Z,6.67
2019-01-30T05:54:46.259Z,6.87
2019-01-30T05:57:12.232Z,6.90
2019-01-30T05:59:38.180Z,5.57
2019-01-30T06:02:11.853Z,7.00
2019-01-30T06:04:30.173Z,6.17
2019-01-30T06:06:56.978Z,5.90
2019-01-30T06:09:22.948Z,10.43
2019-01-30T06:11:49.668Z,5.33
2019-01-30T06:14:15.623Z,5.53
2019-01-30T06:16:41.571Z,6.70
2019-01-30T06:19:07.548Z,7.27
2019-01-30T06:21:34.248Z,5.67
2019-01-30T06:24:00.236Z,7.20
2019-01-30T06:26:26.215Z,5.03
2019-01-30T06:28:52.945Z,4.13
2019-01-30T06:31:18.927Z,6.90
2019-01-30T06:33:44.911Z,5.23
2019-01-30T06:36:10.923Z,5.87
2019-01-30T06:38:37.655Z,4.70
2019-01-30T06:41:03.599Z,7.80
2019-01-30T06:43:30.316Z,4.83
2019-01-30T06:45:56.301Z,6.73
2019-01-30T06:48:22.260Z,2.53
2019-01-30T06:50:48.304Z,3.80
2019-01-30T06:53:14.332Z,4.50
2019-01-30T06:55:41.036Z,5.97
2019-01-30T06:58:07.007Z,5.40
2019-01-30T07:00:33.006Z,4.30
2019-01-30T07:02:59.710Z,4.87
2019-01-30T07:05:25.699Z,4.83
2019-01-30T07:07:51.671Z,7.23
2019-01-30T07:10:17.663Z,4.43
2019-01-30T07:12:43.627Z,4.63
2019-01-30T07:15:09.620Z,3.17
2019-01-30T07:17:35.596Z,6.00
2019-01-30T07:20:02.345Z,4.23
2019-01-30T07:22:28.322Z,4.93
2019-01-30T07:24:54.308Z,4.43
2019-01-30T07:27:20.266Z,4.20
2019-01-30T07:29:46.268Z,4.43
2019-01-30T07:32:12.258Z,4.97
2019-01-30T07:34:38.955Z,4.73
2019-01-30T07:37:04.933Z,4.70
2019-01-30T07:39:30.887Z,4.47
2019-01-30T07:41:56.877Z,5.87
2019-01-30T07:44:22.844Z,8.47
2019-01-30T07:46:48.824Z,5.40
2019-01-30T07:49:14.769Z,5.53
2019-01-30T07:51:40.775Z,3.90
2019-01-30T07:54:06.742Z,9.73
2019-01-30T07:56:32.704Z,6.00
2019-01-30T07:58:58.681Z,4.93
2019-01-30T08:01:24.692Z,5.50
2019-01-30T08:03:50.640Z,5.20
2019-01-30T08:06:16.624Z,4.73
2019-01-30T08:08:42.575Z,4.77
2019-01-30T08:11:08.546Z,4.57
2019-01-30T08:13:35.226Z,4.73
2019-01-30T08:16:01.953Z,5.57
2019-01-30T08:18:27.950Z,5.57
2019-01-30T08:20:53.901Z,5.13
2019-01-30T08:23:20.136Z,6.13
2019-01-30T08:25:46.010Z,3.80
2019-01-30T08:28:12.684Z,4.50
2019-01-30T08:30:38.774Z,5.47
2019-01-30T08:33:05.980Z,5.57
2019-01-30T08:35:30.671Z,5.70
2019-01-30T08:37:56.696Z,4.50
2019-01-30T08:40:22.643Z,3.27
2019-01-30T08:42:48.636Z,3.70
2019-01-30T08:45:14.607Z,4.27
2019-01-30T08:47:41.335Z,3.53
2019-01-30T08:50:08.045Z,5.27
2019-01-30T08:52:34.047Z,6.47
2019-01-30T08:54:59.998Z,3.57
2019-01-30T08:57:25.948Z,3.73
2019-01-30T08:59:51.923Z,4.00
2019-01-30T09:02:17.892Z,6.03
2019-01-30T09:04:43.873Z,5.40
2019-01-30T09:07:09.820Z,3.17
2019-01-30T09:09:35.798Z,4.80
2019-01-30T09:12:01.752Z,4.83
2019-01-30T09:14:27.719Z,2.70
2019-01-30T09:16:54.414Z,3.13
2019-01-30T09:19:20.390Z,2.30
2019-01-30T09:21:46.341Z,3.57
2019-01-30T09:24:12.324Z,5.77
2019-01-30T09:26:39.006Z,2.47
2019-01-30T09:29:04.976Z,2.80
2019-01-30T09:31:30.927Z,3.33
2019-01-30T09:33:56.885Z,4.33
2019-01-30T09:36:22.856Z,4.87
2019-01-30T09:38:48.804Z,5.00
2019-01-30T09:41:14.816Z,5.67
2019-01-30T09:43:41.500Z,2.73
2019-01-30T09:46:07.493Z,3.97
2019-01-30T09:48:33.441Z,3.17
2019-01-30T09:50:59.412Z,4.70
2019-01-30T09:53:25.365Z,4.60
2019-01-30T09:55:51.343Z,5.40
2019-01-30T09:58:18.050Z,4.13
2019-01-30T10:00:44.021Z,7.23
2019-01-30T10:03:09.970Z,5.13
2019-01-30T10:05:35.946Z,4.83
2019-01-30T10:08:02.644Z,3.73
2019-01-30T10:10:28.629Z,4.67
2019-01-30T10:12:54.603Z,4.53
2019-01-30T10:15:20.570Z,3.83
2019-01-30T10:17:46.544Z,8.17
2019-01-30T10:20:12.514Z,4.70
2019-01-30T10:22:38.491Z,3.90
2019-01-30T10:25:04.472Z,4.43
2019-01-30T10:27:30.443Z,4.93
2019-01-30T10:29:58.661Z,5.10
2019-01-30T10:32:22.428Z,3.67
2019-01-30T10:34:49.117Z,4.17
2019-01-30T10:37:15.092Z,9.63
2019-01-30T10:39:41.790Z,8.73
2019-01-30T10:42:07.776Z,4.47
2019-01-30T10:44:33.739Z,5.03
2019-01-30T10:46:59.743Z,6.17
2019-01-30T10:49:25.694Z,4.43
2019-01-30T10:51:51.670Z,4.93
2019-01-30T10:54:17.632Z,5.90
2019-01-30T10:56:43.584Z,4.20
2019-01-30T10:59:09.563Z,5.10
2019-01-30T11:01:35.529Z,8.60
2019-01-30T11:04:01.528Z,4.50
2019-01-30T11:06:27.469Z,5.73
2019-01-30T11:08:54.188Z,6.33
2019-01-30T11:11:20.157Z,3.77
2019-01-30T11:13:46.136Z,5.00
2019-01-30T11:16:12.204Z,7.67
2019-01-30T11:18:38.128Z,4.40
2019-01-30T11:21:05.976Z,5.33
2019-01-30T11:23:30.127Z,6.37
2019-01-30T11:25:57.032Z,5.73
2019-01-30T11:28:22.146Z,4.70
2019-01-30T11:30:48.099Z,3.90
2019-01-30T11:33:14.826Z,7.03
2019-01-30T11:35:40.820Z,5.00
2019-01-30T11:38:08.884Z,5.10
2019-01-30T11:40:32.858Z,6.30
2019-01-30T11:42:58.801Z,3.60
2019-01-30T11:45:24.777Z,4.53
2019-01-30T11:47:51.448Z,4.10
2019-01-30T11:50:17.428Z,6.23
2019-01-30T11:52:44.134Z,8.10
2019-01-30T11:55:10.116Z,5.33
2019-01-30T11:57:36.076Z,6.40
2019-01-30T12:00:02.064Z,8.43
2019-01-30T12:02:28.037Z,5.53
2019-01-30T12:04:54.033Z,5.50
2019-01-30T12:07:19.987Z,7.50
2019-01-30T12:09:45.960Z,5.07
2019-01-30T12:12:11.899Z,5.57
2019-01-30T12:14:38.525Z,4.23
2019-01-30T12:17:04.504Z,5.13
2019-01-30T12:19:31.219Z,5.30
2019-01-30T12:21:57.231Z,7.70
2019-01-30T12:24:23.208Z,3.33
2019-01-30T12:26:49.176Z,7.23
2019-01-30T12:29:15.175Z,6.50
2019-01-30T12:31:41.174Z,3.43
2019-01-30T12:34:07.151Z,6.77
2019-01-30T12:36:33.126Z,6.47
2019-01-30T12:38:59.092Z,5.00
2019-01-30T12:41:25.191Z,6.70
2019-01-30T12:43:51.162Z,6.23
2019-01-30T12:46:17.919Z,6.00
2019-01-30T12:48:43.877Z,6.63
2019-01-30T12:51:09.870Z,6.73
2019-01-30T12:53:36.583Z,8.53
2019-01-30T12:56:02.580Z,8.07
2019-01-30T12:58:28.549Z,10.80
2019-01-30T13:00:55.236Z,4.43
2019-01-30T13:03:21.207Z,5.53
2019-01-30T13:05:47.904Z,9.70
2019-01-30T13:08:13.871Z,6.43
2019-01-30T13:10:39.824Z,6.17
2019-01-30T13:13:05.814Z,9.20
2019-01-30T13:15:32.516Z,5.67
2019-01-30T13:17:58.477Z,6.20
2019-01-30T13:20:25.177Z,8.03
2019-01-30T13:22:51.245Z,7.27
2019-01-30T13:25:17.157Z,6.57
2019-01-30T13:27:43.137Z,6.10
2019-01-30T13:30:09.095Z,6.37
2019-01-30T13:32:35.058Z,5.07
2019-01-30T13:35:01.783Z,10.83
2019-01-30T13:37:28.482Z,5.20
2019-01-30T13:39:54.466Z,11.40
2019-01-30T13:42:20.436Z,6.47
2019-01-30T13:44:46.401Z,8.93
2019-01-30T13:47:12.373Z,6.83
2019-01-30T13:49:38.354Z,6.73
2019-01-30T13:52:04.320Z,10.20
2019-01-30T13:54:30.336Z,7.00
2019-01-30T13:56:56.330Z,9.73
2019-01-30T13:59:22.359Z,7.43
2019-01-30T14:01:48.313Z,6.13
2019-01-30T14:04:14.292Z,6.57
2019-01-30T14:06:40.279Z,7.00
2019-01-30T14:09:07.033Z,8.73
2019-01-30T14:11:33.734Z,8.13
2019-01-30T14:13:59.694Z,6.90
2019-01-30T14:16:26.439Z,8.00
2019-01-30T14:18:53.123Z,7.97
2019-01-30T14:21:19.104Z,6.70
2019-01-30T14:23:45.807Z,5.60
2019-01-30T14:26:11.787Z,5.63
2019-01-30T14:28:37.740Z,9.97
2019-01-30T14:31:03.740Z,8.13
2019-01-30T14:33:29.720Z,9.00
2019-01-30T14:35:55.733Z,9.27
2019-01-30T14:38:21.701Z,11.50
2019-01-30T14:40:47.723Z,8.07
2019-01-30T14:43:13.686Z,8.03
2019-01-30T14:45:39.742Z,5.00
2019-01-30T14:48:05.727Z,6.40
2019-01-30T14:50:38.781Z,5.93
2019-01-30T14:53:04.720Z,8.17
2019-01-30T14:55:30.826Z,7.63
2019-01-30T14:57:56.728Z,8.30
2019-01-30T15:00:23.461Z,9.77
2019-01-30T15:02:49.446Z,8.63
2019-01-30T15:05:22.358Z,6.43
2019-01-30T15:07:41.431Z,8.37
2019-01-30T15:10:08.137Z,11.17
2019-01-30T15:12:34.146Z,7.57
2019-01-30T15:15:00.238Z,11.80
2019-01-30T15:17:26.151Z,6.77
2019-01-30T15:19:52.867Z,7.53
2019-01-30T15:22:18.851Z,7.37
2019-01-30T15:24:45.532Z,6.70
2019-01-30T15:27:11.515Z,9.70
2019-01-30T15:29:37.476Z,6.63
2019-01-30T15:32:03.453Z,7.57
2019-01-30T15:34:29.417Z,7.33
2019-01-30T15:36:55.404Z,11.73
2019-01-30T15:39:21.355Z,9.77
2019-01-30T15:41:47.412Z,6.63
2019-01-30T15:44:13.360Z,6.80
2019-01-30T15:46:39.308Z,7.30
2019-01-30T15:49:06.390Z,6.40
2019-01-30T15:51:31.300Z,7.10
2019-01-30T15:53:58.026Z,8.07
2019-01-30T15:56:23.984Z,10.70
2019-01-30T15:58:49.968Z,9.10
2019-01-30T16:01:16.667Z,6.53
2019-01-30T16:03:42.654Z,8.37
2019-01-30T16:06:09.345Z,8.70
2019-01-30T16:08:35.309Z,7.80
2019-01-30T16:11:01.996Z,6.73
2019-01-30T16:13:27.958Z,7.70
2019-01-30T16:15:53.938Z,8.73
2019-01-30T16:18:19.915Z,5.90
2019-01-30T16:20:46.660Z,9.20
2019-01-30T16:23:12.615Z,8.23
2019-01-30T16:25:38.611Z,11.40
2019-01-30T16:28:05.320Z,7.97
2019-01-30T16:30:31.314Z,7.80
2019-01-30T16:32:57.280Z,8.63
2019-01-30T16:35:23.273Z,7.47
2019-01-30T16:37:49.265Z,7.93
2019-01-30T16:40:15.275Z,8.07
2019-01-30T16:42:41.247Z,7.67
2019-01-30T16:45:07.239Z,10.50
2019-01-30T16:47:33.224Z,9.23
2019-01-30T16:49:59.940Z,10.13
2019-01-30T16:52:25.934Z,12.10
2019-01-30T16:54:51.909Z,9.37
2019-01-30T16:57:18.637Z,9.40
2019-01-30T16:59:45.365Z,8.27
2019-01-30T17:02:11.353Z,9.17
2019-01-30T17:04:37.346Z,9.83
2019-01-30T17:07:03.326Z,8.43
2019-01-30T17:09:29.270Z,9.07
2019-01-30T17:11:56.009Z,12.10
2019-01-30T17:14:21.950Z,9.63
2019-01-30T17:16:48.667Z,10.90
2019-01-30T17:19:14.650Z,10.57
2019-01-30T17:21:40.669Z,10.33
2019-01-30T17:24:06.633Z,10.33
2019-01-30T17:26:32.623Z,9.83
2019-01-30T17:28:58.584Z,10.87
2019-01-30T17:31:25.297Z,10.77
2019-01-30T17:33:51.318Z,9.90
2019-01-30T17:36:18.622Z,7.90
2019-01-30T17:38:43.298Z,10.00
2019-01-30T17:41:09.291Z,11.63
2019-01-30T17:43:35.268Z,10.73
2019-01-30T17:46:01.228Z,11.47
2019-01-30T17:48:27.218Z,11.97
2019-01-30T17:50:53.183Z,10.37
2019-01-30T17:53:19.176Z,9.13
2019-01-30T17:55:45.123Z,9.60
2019-01-30T17:58:11.101Z,12.37
2019-01-30T18:00:37.049Z,11.97
2019-01-30T18:03:03.043Z,10.53
2019-01-30T18:05:28.999Z,10.67
2019-01-30T18:07:54.958Z,11.77
2019-01-30T18:10:20.951Z,10.57
2019-01-30T18:12:46.921Z,11.60
2019-01-30T18:15:13.656Z,14.63
2019-01-30T18:17:40.395Z,10.73
2019-01-30T18:20:08.132Z,10.63
2019-01-30T18:22:32.467Z,9.53
2019-01-30T18:24:58.711Z,9.90
2019-01-30T18:27:24.709Z,10.83
2019-01-30T18:29:51.441Z,12.53
2019-01-30T18:32:17.402Z,12.20
2019-01-30T18:34:43.392Z,14.20
2019-01-30T18:37:10.092Z,14.07
2019-01-30T18:39:36.088Z,12.60
2019-01-30T18:42:02.053Z,12.80
2019-01-30T18:44:28.061Z,11.50
2019-01-30T18:46:54.045Z,11.47
2019-01-30T18:49:20.769Z,15.37
2019-01-30T18:51:47.516Z,13.80
2019-01-30T18:54:13.483Z,11.83
2019-01-30T18:56:39.476Z,11.80
2019-01-30T18:59:05.430Z,10.87
2019-01-30T19:01:31.414Z,10.50
2019-01-30T19:03:57.454Z,11.77
2019-01-30T19:06:23.434Z,9.67
2019-01-30T19:08:50.130Z,12.77
2019-01-30T19:11:16.099Z,12.40
2019-01-30T19:13:42.799Z,13.33
2019-01-30T19:16:08.818Z,14.13
2019-01-30T19:18:34.779Z,16.87
2019-01-30T19:21:00.762Z,12.87
2019-01-30T19:23:26.748Z,16.40
2019-01-30T19:25:52.729Z,18.77
2019-01-30T19:28:18.742Z,16.80
2019-01-30T19:30:45.229Z,17.23
2019-01-30T19:33:10.723Z,16.70
2019-01-30T19:35:37.426Z,15.13
2019-01-30T19:38:03.402Z,15.47
2019-01-30T19:40:29.373Z,16.30
2019-01-30T19:42:55.372Z,13.47
2019-01-30T19:45:21.351Z,13.37
2019-01-30T19:47:48.082Z,16.23
2019-01-30T19:50:14.796Z,18.83
2019-01-30T19:52:40.789Z,14.83
2019-01-30T19:55:06.747Z,11.50
2019-01-30T19:57:32.747Z,15.50
2019-01-30T19:59:58.740Z,15.40
2019-01-30T20:02:24.735Z,16.63
2019-01-30T20:04:50.750Z,16.57
2019-01-30T20:07:17.489Z,16.90
2019-01-30T20:09:44.963Z,13.73
2019-01-30T20:12:09.539Z,17.67
2019-01-30T20:14:35.548Z,18.87
2019-01-30T20:17:01.535Z,13.77
2019-01-30T20:19:27.566Z,14.63
2019-01-30T20:21:53.565Z,18.13
2019-01-30T20:24:19.584Z,15.13
2019-01-30T20:26:46.303Z,14.83
2019-01-30T20:29:13.048Z,14.93
2019-01-30T20:31:39.770Z,16.07
2019-01-30T20:34:10.281Z,15.87
2019-01-30T20:36:31.812Z,15.63
2019-01-30T20:38:57.782Z,15.53
2019-01-30T20:41:23.787Z,18.60
2019-01-30T20:43:50.501Z,16.57
2019-01-30T20:46:16.512Z,18.47
2019-01-30T20:48:46.951Z,16.60
2019-01-30T20:51:08.548Z,15.77
2019-01-30T20:53:34.519Z,15.93
2019-01-30T20:56:01.277Z,14.37
2019-01-30T20:58:27.267Z,16.90
2019-01-30T21:00:53.276Z,13.87
2019-01-30T21:03:19.250Z,16.13
2019-01-30T21:05:45.265Z,14.43
2019-01-30T21:08:11.963Z,17.47
2019-01-30T21:10:38.093Z,15.97
2019-01-30T21:13:04.732Z,13.90
2019-01-30T21:15:30.741Z,19.27
2019-01-30T21:17:56.777Z,13.33
2019-01-30T21:20:23.527Z,17.13
2019-01-30T21:22:49.588Z,15.13
2019-01-30T21:25:15.572Z,13.97
2019-01-30T21:27:41.694Z,13.53
2019-01-30T21:30:08.451Z,16.93
2019-01-30T21:32:35.647Z,15.40
2019-01-30T21:35:01.620Z,15.50
2019-01-30T21:37:27.639Z,15.93
2019-01-30T21:39:53.627Z,17.43
2019-01-30T21:42:20.768Z,19.83
2019-01-30T21:44:47.483Z,13.97
2019-01-30T21:47:14.319Z,15.80
2019-01-30T21:49:40.871Z,14.70
2019-01-30T21:52:06.867Z,15.77
2019-01-30T21:54:33.618Z,17.03
2019-01-30T21:57:00.873Z,12.83
2019-01-30T21:59:27.598Z,14.67
2019-01-30T22:01:53.604Z,13.37
2019-01-30T22:04:19.602Z,14.93
2019-01-30T22:06:45.586Z,14.40
2019-01-30T22:09:11.675Z,15.23
2019-01-30T22:11:37.782Z,16.87
2019-01-30T22:14:03.808Z,16.90
2019-01-30T22:16:30.582Z,16.67
2019-01-30T22:18:56.613Z,19.07
2019-01-30T22:21:22.718Z,17.83
2019-01-30T22:23:48.795Z,16.60
2019-01-30T22:26:14.816Z,13.57
2019-01-30T22:28:40.815Z,15.03
2019-01-30T22:31:07.541Z,20.83
2019-01-30T22:33:33.620Z,19.13
2019-01-30T22:35:59.752Z,19.20
2019-01-30T22:38:26.651Z,19.40
2019-01-30T22:40:52.683Z,13.33
2019-01-30T22:43:18.661Z,18.40
2019-01-30T22:45:44.668Z,9.63
2019-01-30T22:48:10.712Z,16.50
2019-01-30T22:50:36.720Z,15.33
2019-01-30T22:53:02.721Z,13.67
2019-01-30T22:55:28.937Z,19.47
2019-01-30T22:57:54.926Z,14.63
2019-01-30T23:00:20.996Z,17.23
2019-01-30T23:02:47.062Z,16.77
2019-01-30T23:05:13.087Z,19.07
2019-01-30T23:07:39.090Z,11.63
2019-01-30T23:10:05.065Z,15.03
2019-01-30T23:12:31.005Z,15.40
2019-01-30T23:14:57.081Z,18.27
2019-01-30T23:17:23.075Z,14.70
2019-01-30T23:19:49.093Z,15.43
2019-01-30T23:22:15.096Z,18.17
2019-01-30T23:24:41.060Z,12.87
2019-01-30T23:27:07.066Z,13.83
2019-01-30T23:29:33.065Z,15.47
2019-01-30T23:31:59.784Z,13.07
2019-01-30T23:34:26.520Z,14.67
2019-01-30T23:36:52.519Z,12.00
2019-01-30T23:39:18.547Z,13.70
2019-01-30T23:41:44.556Z,14.63
2019-01-30T23:44:10.568Z,14.77
2019-01-30T23:46:36.602Z,15.50
2019-01-30T23:49:02.563Z,17.73
2019-01-30T23:51:28.547Z,15.53
2019-01-30T23:53:54.543Z,19.30
2019-01-30T23:56:20.528Z,15.63
2019-01-30T23:58:46.510Z,13.30
